Time;durP1;ratioP1;P1;durP2;ratioP2;P2;SDS_P1;SDS_P2;PMS_P1;PMS_P2;Temp;Humidity;BMP_temperature;BMP_pressure;BME280_temperature;BME280_humidity;BME280_pressure;Samples;Min_cycle;Max_cycle;Signal;HPM_P1;HPM_P2
2023/07/03 00:01:14;;;;;;;21.63;16.33;;;22.70;75.60;;;;;;4998473;28;20022;-68
2023/07/03 00:03:40;;;;;;;19.38;16.63;;;22.70;75.70;;;;;;4998925;28;20033;-68
2023/07/03 00:06:06;;;;;;;20.30;15.68;;;22.60;75.80;;;;;;4998937;28;20448;-68
2023/07/03 00:08:32;;;;;;;22.00;17.95;;;22.60;75.90;;;;;;4998376;28;20029;-68
2023/07/03 00:11:05;;;;;;;18.83;14.52;;;22.60;76.30;;;;;;4998240;28;20467;-68
2023/07/03 00:13:31;;;;;;;21.75;16.10;;;22.60;76.00;;;;;;4998506;28;20073;-67
2023/07/03 00:16:01;;;;;;;18.02;13.07;;;22.50;76.20;;;;;;4998144;28;20468;-69
2023/07/03 00:18:29;;;;;;;19.15;16.13;;;22.50;76.00;;;;;;4998423;28;20068;-67
2023/07/03 00:20:55;;;;;;;16.95;13.27;;;22.50;76.20;;;;;;4998052;28;20121;-68
2023/07/03 00:23:25;;;;;;;17.55;14.50;;;22.50;76.20;;;;;;4998497;28;20436;-68
2023/07/03 00:25:52;;;;;;;22.25;16.45;;;22.40;76.20;;;;;;4997664;28;20419;-69
2023/07/03 00:28:18;;;;;;;17.42;14.43;;;22.50;76.40;;;;;;4998512;28;20046;-68
2023/07/03 00:30:44;;;;;;;15.65;12.85;;;22.50;76.40;;;;;;4998149;28;20038;-67
2023/07/03 00:33:11;;;;;;;17.10;12.90;;;22.50;76.20;;;;;;4997847;28;20018;-68
2023/07/03 00:35:38;;;;;;;14.60;11.95;;;22.50;76.30;;;;;;4998197;28;20022;-67
2023/07/03 00:38:04;;;;;;;15.18;11.75;;;22.40;76.20;;;;;;4997818;28;20448;-68
2023/07/03 00:40:30;;;;;;;13.10;10.07;;;22.50;76.30;;;;;;4997139;28;20030;-69
2023/07/03 00:42:56;;;;;;;13.18;10.45;;;22.50;76.10;;;;;;4997649;28;20019;-68
2023/07/03 00:45:22;;;;;;;14.27;10.35;;;22.50;76.20;;;;;;4997949;28;20444;-68
2023/07/03 00:47:49;;;;;;;11.35;9.77;;;22.50;76.30;;;;;;4997905;28;20023;-67
2023/07/03 00:50:15;;;;;;;13.07;10.80;;;22.60;76.30;;;;;;4998093;28;20114;-69
2023/07/03 00:52:42;;;;;;;20.23;15.68;;;22.60;76.20;;;;;;4997468;28;20030;-68
2023/07/03 00:55:10;;;;;;;19.05;15.25;;;22.60;76.20;;;;;;4996826;28;20022;-69
2023/07/03 00:57:36;;;;;;;16.60;13.70;;;22.60;76.30;;;;;;4997380;28;20105;-67
2023/07/03 01:00:04;;;;;;;18.30;14.80;;;22.50;76.30;;;;;;4997627;28;20102;-67
2023/07/03 01:02:50;;;;;;;14.80;12.02;;;22.50;76.40;;;;;;4997602;28;20038;-68
2023/07/03 01:05:29;;;;;;;17.08;13.70;;;22.50;76.30;;;;;;4997299;28;20034;-66
2023/07/03 01:07:56;;;;;;;12.82;11.35;;;22.50;76.30;;;;;;4997803;28;20026;-68
2023/07/03 01:10:24;;;;;;;15.80;12.50;;;22.40;76.40;;;;;;4997095;28;20036;-67
2023/07/03 01:12:58;;;;;;;16.80;12.48;;;22.40;76.40;;;;;;4996160;28;20053;-67
2023/07/03 01:15:44;;;;;;;20.08;15.90;;;22.40;76.50;;;;;;4997387;28;20050;-67
2023/07/03 01:18:11;;;;;;;17.90;13.98;;;22.40;76.70;;;;;;4997350;28;20018;-67
2023/07/03 01:20:49;;;;;;;14.95;12.50;;;22.40;76.80;;;;;;4997012;28;20026;-67
2023/07/03 01:23:31;;;;;;;22.23;16.45;;;22.40;76.70;;;;;;4997120;28;20019;-67
2023/07/03 01:25:58;;;;;;;20.52;16.00;;;22.40;76.80;;;;;;4997188;28;20109;-69
2023/07/03 01:28:26;;;;;;;19.92;14.80;;;22.30;76.90;;;;;;4996866;28;20018;-68
2023/07/03 01:30:55;;;;;;;20.95;15.27;;;22.30;76.80;;;;;;4996773;28;20038;-69
2023/07/03 01:33:30;;;;;;;21.13;17.13;;;22.30;77.10;;;;;;4996482;28;20026;-69
2023/07/03 01:35:58;;;;;;;17.92;13.77;;;22.20;76.90;;;;;;4996782;28;20045;-68
2023/07/03 01:38:25;;;;;;;17.02;13.52;;;22.20;77.00;;;;;;4995995;28;20436;-68
2023/07/03 01:40:53;;;;;;;22.30;16.35;;;22.30;77.20;;;;;;4996691;28;20494;-67
2023/07/03 01:43:21;;;;;;;15.23;12.32;;;22.30;77.20;;;;;;4996530;28;20118;-68
2023/07/03 01:45:48;;;;;;;16.13;12.80;;;22.30;77.30;;;;;;4997105;28;20399;-68
2023/07/03 01:48:16;;;;;;;16.60;13.10;;;22.40;77.40;;;;;;4996557;28;20030;-68
2023/07/03 01:50:44;;;;;;;22.17;16.52;;;22.40;77.30;;;;;;4996450;28;20329;-69
2023/07/03 01:53:25;;;;;;;21.58;16.40;;;22.40;77.30;;;;;;4996799;28;20053;-68
2023/07/03 01:56:17;;;;;;;17.10;13.68;;;22.40;77.40;;;;;;4997687;28;20023;-67
2023/07/03 01:58:47;;;;;;;18.63;14.82;;;22.40;77.50;;;;;;4997148;28;20022;-68
2023/07/03 02:01:20;;;;;;;17.50;13.93;;;22.40;77.40;;;;;;4996616;28;20036;-68
2023/07/03 02:04:04;;;;;;;17.17;14.27;;;22.40;77.30;;;;;;4996539;28;20109;-69
2023/07/03 02:06:37;;;;;;;19.63;15.27;;;22.40;77.20;;;;;;4996782;28;20149;-68
2023/07/03 02:09:07;;;;;;;19.67;14.70;;;22.40;77.20;;;;;;4996523;28;20098;-69
2023/07/03 02:11:34;;;;;;;20.70;16.25;;;22.40;77.50;;;;;;4996378;28;20048;-68
2023/07/03 02:14:00;;;;;;;21.60;18.33;;;22.40;77.50;;;;;;4996056;28;20076;-67
2023/07/03 02:16:29;;;;;;;22.52;17.95;;;22.50;77.50;;;;;;4996121;28;20106;-69
2023/07/03 02:18:56;;;;;;;27.75;22.15;;;22.50;77.60;;;;;;4996110;28;20022;-67
2023/07/03 02:21:22;;;;;;;25.95;20.23;;;22.50;78.10;;;;;;4996030;28;20101;-68
2023/07/03 02:23:48;;;;;;;22.35;17.65;;;22.40;78.10;;;;;;4995952;28;20030;-69
2023/07/03 02:26:15;;;;;;;26.55;19.80;;;22.40;78.10;;;;;;4996241;28;20030;-68
2023/07/03 02:28:41;;;;;;;26.10;20.88;;;22.40;78.30;;;;;;4996235;28;20061;-68
2023/07/03 02:31:07;;;;;;;30.73;22.15;;;22.40;78.30;;;;;;4995886;28;20072;-68
2023/07/03 02:33:33;;;;;;;31.10;23.35;;;22.30;78.90;;;;;;4995532;28;20050;-69
2023/07/03 02:36:03;;;;;;;30.00;22.25;;;22.40;79.20;;;;;;4994927;28;20033;-69
2023/07/03 02:38:29;;;;;;;22.15;17.20;;;22.40;79.00;;;;;;4996122;28;20018;-70
2023/07/03 02:40:56;;;;;;;30.83;23.38;;;22.30;78.90;;;;;;4996348;28;20045;-69
2023/07/03 02:43:22;;;;;;;30.13;21.95;;;22.30;79.40;;;;;;4995908;28;20046;-68
2023/07/03 02:45:48;;;;;;;29.40;22.05;;;22.30;79.70;;;;;;4994769;28;20419;-68
2023/07/03 02:48:15;;;;;;;30.48;23.27;;;22.30;79.60;;;;;;4996041;28;20038;-69
2023/07/03 02:50:41;;;;;;;23.92;16.70;;;22.30;79.60;;;;;;5000228;28;20022;-68
2023/07/03 02:53:07;;;;;;;18.60;14.75;;;22.20;79.30;;;;;;4999712;28;20026;-69
2023/07/03 02:55:33;;;;;;;28.63;22.80;;;22.30;79.30;;;;;;4999712;28;20356;-68
2023/07/03 02:58:00;;;;;;;29.95;23.17;;;22.30;79.20;;;;;;4999700;28;20034;-69
2023/07/03 03:00:27;;;;;;;33.80;24.33;;;22.20;79.70;;;;;;4999630;28;20432;-66
2023/07/03 03:02:54;;;;;;;31.63;24.00;;;22.30;80.10;;;;;;4999449;28;20034;-67
2023/07/03 03:05:20;;;;;;;34.15;24.75;;;22.20;79.90;;;;;;4999792;28;20090;-68
2023/07/03 03:07:46;;;;;;;32.95;24.08;;;22.20;80.30;;;;;;4999761;28;20173;-66
2023/07/03 03:10:12;;;;;;;33.63;25.08;;;22.20;80.50;;;;;;4999410;28;20106;-68
2023/07/03 03:12:38;;;;;;;35.88;24.88;;;22.20;80.80;;;;;;4999387;28;20138;-69
2023/07/03 03:15:06;;;;;;;26.90;21.20;;;22.10;80.80;;;;;;4999285;28;20041;-66
2023/07/03 03:17:32;;;;;;;25.88;18.83;;;22.10;80.70;;;;;;4999309;28;20030;-66
2023/07/03 03:19:57;;;;;;;30.08;22.20;;;22.10;80.30;;;;;;4999312;28;20029;-67
2023/07/03 03:22:23;;;;;;;29.50;22.70;;;22.10;80.20;;;;;;4999215;28;20030;-68
2023/07/03 03:24:50;;;;;;;38.63;27.55;;;22.10;80.90;;;;;;4999622;28;20026;-68
2023/07/03 03:27:15;;;;;;;33.75;25.23;;;22.10;81.30;;;;;;4999661;28;20030;-67
2023/07/03 03:29:41;;;;;;;42.05;26.17;;;22.10;81.70;;;;;;4999372;28;20026;-67
2023/07/03 03:32:08;;;;;;;34.63;27.52;;;22.00;81.40;;;;;;4998925;28;20038;-67
2023/07/03 03:34:34;;;;;;;34.00;23.15;;;22.00;81.00;;;;;;4998869;28;20093;-69
2023/07/03 03:37:01;;;;;;;33.80;24.08;;;22.00;81.20;;;;;;4998990;28;20360;-70
2023/07/03 03:39:27;;;;;;;37.42;27.55;;;22.00;81.50;;;;;;4998898;28;20113;-67
2023/07/03 03:41:53;;;;;;;33.78;25.73;;;22.00;82.00;;;;;;4999400;28;20105;-67
2023/07/03 03:44:19;;;;;;;29.23;21.20;;;22.00;82.10;;;;;;4998790;28;20456;-67
2023/07/03 03:46:45;;;;;;;31.23;23.13;;;22.00;81.60;;;;;;4998831;28;20460;-67
2023/07/03 03:49:11;;;;;;;34.45;26.65;;;22.00;81.80;;;;;;4998709;28;20022;-69
2023/07/03 03:51:37;;;;;;;35.40;26.33;;;21.90;81.90;;;;;;4998609;28;20095;-67
2023/07/03 03:54:04;;;;;;;34.85;26.98;;;21.90;81.90;;;;;;4998720;28;20068;-69
2023/07/03 03:56:30;;;;;;;32.80;23.83;;;21.90;82.10;;;;;;4998634;28;20539;-69
2023/07/03 03:58:56;;;;;;;38.40;25.90;;;21.90;81.70;;;;;;5013912;28;20030;-67
2023/07/03 04:01:22;;;;;;;27.08;21.10;;;21.90;81.90;;;;;;4997708;28;20448;-67
2023/07/03 04:03:48;;;;;;;32.45;22.30;;;21.90;81.50;;;;;;4998662;28;20030;-69
2023/07/03 04:06:18;;;;;;;34.78;25.27;;;21.90;81.60;;;;;;4998695;28;20081;-69
2023/07/03 04:08:45;;;;;;;34.17;25.65;;;21.90;82.10;;;;;;4997444;28;20057;-67
2023/07/03 04:11:11;;;;;;;33.08;24.73;;;21.90;82.60;;;;;;5013598;28;20030;-69
2023/07/03 04:13:36;;;;;;;31.85;23.60;;;21.90;82.70;;;;;;4998435;28;20033;-69
2023/07/03 04:16:04;;;;;;;36.72;27.17;;;21.90;82.50;;;;;;4998777;28;20026;-67
2023/07/03 04:18:31;;;;;;;35.05;24.35;;;21.90;82.40;;;;;;4998197;28;20030;-67
2023/07/03 04:20:57;;;;;;;38.55;27.08;;;21.90;82.40;;;;;;4998452;28;20026;-68
2023/07/03 04:23:24;;;;;;;29.27;22.20;;;21.90;82.70;;;;;;4998055;28;20029;-69
2023/07/03 04:25:51;;;;;;;31.42;23.77;;;21.90;82.40;;;;;;4998013;28;20117;-68
2023/07/03 04:28:19;;;;;;;30.70;22.73;;;21.90;82.20;;;;;;4998504;28;20034;-68
2023/07/03 04:30:46;;;;;;;34.38;24.95;;;21.90;82.20;;;;;;4997898;28;20467;-69
2023/07/03 04:33:12;;;;;;;34.33;26.67;;;21.90;82.30;;;;;;4997593;28;20022;-68
2023/07/03 04:35:39;;;;;;;34.30;26.27;;;21.90;82.90;;;;;;4998196;28;20411;-69
2023/07/03 04:38:05;;;;;;;37.25;27.38;;;21.90;82.60;;;;;;4998446;28;20030;-68
2023/07/03 04:40:31;;;;;;;34.05;25.60;;;21.90;82.90;;;;;;4997807;28;20347;-68
2023/07/03 04:42:57;;;;;;;28.90;22.75;;;21.90;83.00;;;;;;4998175;28;20432;-67
2023/07/03 04:45:24;;;;;;;30.70;23.75;;;21.90;82.40;;;;;;4997993;28;20033;-67
2023/07/03 04:47:51;;;;;;;30.63;23.15;;;21.90;82.00;;;;;;4997608;28;20026;-68
2023/07/03 04:50:17;;;;;;;27.20;20.02;;;22.00;81.90;;;;;;4997895;28;20033;-69
2023/07/03 04:52:46;;;;;;;28.20;22.17;;;22.00;81.90;;;;;;4997514;28;20045;-69
2023/07/03 04:55:12;;;;;;;24.25;18.65;;;22.00;81.90;;;;;;4997429;28;20026;-68
2023/07/03 04:57:40;;;;;;;25.10;19.67;;;22.00;81.70;;;;;;4997743;28;20030;-68
2023/07/03 05:00:14;;;;;;;32.38;22.80;;;22.00;81.90;;;;;;4997389;28;20058;-68
2023/07/03 05:02:44;;;;;;;27.42;20.83;;;22.00;82.00;;;;;;4997954;28;20368;-68
2023/07/03 05:05:11;;;;;;;24.00;18.95;;;22.00;81.60;;;;;;4997277;28;20439;-68
2023/07/03 05:07:41;;;;;;;26.65;19.52;;;22.00;81.30;;;;;;4996662;28;20443;-68
2023/07/03 05:10:09;;;;;;;23.55;18.17;;;22.10;81.10;;;;;;4997732;28;20467;-68
2023/07/03 05:12:35;;;;;;;26.25;19.20;;;22.00;80.80;;;;;;4997176;28;20022;-67
2023/07/03 05:15:03;;;;;;;24.45;18.50;;;22.00;80.80;;;;;;4997152;28;20510;-68
2023/07/03 05:17:30;;;;;;;24.67;18.70;;;22.00;80.70;;;;;;4996148;28;20121;-67
2023/07/03 05:19:56;;;;;;;23.77;18.25;;;22.00;80.40;;;;;;4997298;28;20022;-67
2023/07/03 05:22:22;;;;;;;21.73;16.55;;;22.00;80.40;;;;;;4997014;28;20360;-67
2023/07/03 05:24:49;;;;;;;21.60;16.45;;;22.00;79.70;;;;;;4997186;28;20030;-68
2023/07/03 05:27:15;;;;;;;20.38;14.98;;;22.20;79.70;;;;;;4997183;28;20499;-68
2023/07/03 05:29:41;;;;;;;17.67;13.07;;;22.60;79.60;;;;;;4996860;28;20019;-67
2023/07/03 05:32:08;;;;;;;19.38;13.95;;;23.40;78.40;;;;;;4995791;28;20049;-67
2023/07/03 05:34:36;;;;;;;20.65;14.80;;;24.20;76.70;;;;;;4996686;28;20049;-69
2023/07/03 05:37:02;;;;;;;17.88;13.30;;;24.90;74.90;;;;;;4995740;28;20026;-68
2023/07/03 05:39:28;;;;;;;21.33;14.98;;;25.10;74.00;;;;;;4996646;28;20033;-69
2023/07/03 05:41:55;;;;;;;18.98;14.40;;;25.20;73.10;;;;;;4996637;28;20034;-68
2023/07/03 05:44:21;;;;;;;17.25;13.13;;;25.30;72.90;;;;;;4996765;28;20030;-67
2023/07/03 05:46:47;;;;;;;17.92;11.38;;;25.10;71.70;;;;;;4996792;28;20030;-67
2023/07/03 05:49:13;;;;;;;15.65;11.15;;;25.00;72.30;;;;;;4996743;28;20026;-68
2023/07/03 05:51:39;;;;;;;15.25;10.80;;;25.10;71.60;;;;;;4996394;28;20332;-67
2023/07/03 05:54:05;;;;;;;14.50;10.00;;;24.90;70.90;;;;;;4996877;28;20022;-69
2023/07/03 05:56:31;;;;;;;15.68;11.32;;;24.70;71.50;;;;;;4996390;28;20026;-67
2023/07/03 05:58:57;;;;;;;15.25;10.80;;;24.40;72.30;;;;;;4996610;28;20058;-67
2023/07/03 06:01:23;;;;;;;15.60;11.40;;;24.20;72.30;;;;;;4996285;28;20037;-67
2023/07/03 06:03:50;;;;;;;15.77;11.18;;;24.00;72.70;;;;;;4996199;28;20022;-67
2023/07/03 06:06:16;;;;;;;16.30;11.45;;;23.90;73.30;;;;;;4996123;28;20034;-68
2023/07/03 06:08:42;;;;;;;17.20;11.70;;;23.80;73.30;;;;;;4996467;28;20022;-68
2023/07/03 06:11:08;;;;;;;14.50;11.55;;;23.60;73.80;;;;;;4996379;28;20076;-69
2023/07/03 06:13:34;;;;;;;14.48;11.40;;;23.40;74.00;;;;;;4996015;28;20053;-68
2023/07/03 06:16:00;;;;;;;16.33;11.45;;;23.30;74.20;;;;;;4996372;28;20026;-68
2023/07/03 06:18:26;;;;;;;15.63;10.00;;;23.20;74.60;;;;;;4996335;28;20491;-67
2023/07/03 06:20:52;;;;;;;13.55;8.93;;;23.00;74.80;;;;;;4996266;28;20109;-67
2023/07/03 06:23:18;;;;;;;12.32;8.95;;;22.90;74.90;;;;;;4995401;28;20328;-68
2023/07/03 06:25:45;;;;;;;12.68;8.45;;;22.80;75.00;;;;;;4996225;28;20030;-68
2023/07/03 06:28:10;;;;;;;13.10;7.63;;;22.70;75.20;;;;;;4996462;28;20029;-69
2023/07/03 06:30:36;;;;;;;14.70;8.80;;;22.60;75.30;;;;;;4996122;28;20022;-69
2023/07/03 06:33:02;;;;;;;11.57;7.47;;;22.60;75.50;;;;;;4995831;28;20105;-68
2023/07/03 06:35:28;;;;;;;12.25;8.77;;;22.60;75.50;;;;;;4995684;28;20074;-67
2023/07/03 06:38:00;;;;;;;10.18;6.78;;;22.60;75.50;;;;;;4995843;28;20030;-69
2023/07/03 06:40:26;;;;;;;9.93;7.15;;;22.50;75.70;;;;;;4995828;28;20113;-68
2023/07/03 06:42:53;;;;;;;9.85;6.78;;;22.50;75.80;;;;;;4996227;28;20110;-69
2023/07/03 06:45:19;;;;;;;11.68;7.72;;;22.50;75.80;;;;;;4995995;28;20359;-68
2023/07/03 06:47:45;;;;;;;12.68;8.40;;;22.40;75.50;;;;;;4995708;28;20026;-67
2023/07/03 06:50:11;;;;;;;12.07;8.32;;;22.40;75.70;;;;;;4994712;28;20045;-67
2023/07/03 06:52:38;;;;;;;11.95;8.02;;;22.20;76.00;;;;;;4995571;28;20061;-69
2023/07/03 06:55:04;;;;;;;10.68;7.10;;;22.10;76.20;;;;;;4995851;28;20054;-69
2023/07/03 06:57:30;;;;;;;11.02;6.95;;;22.00;76.60;;;;;;4995916;28;20097;-69
2023/07/03 06:59:56;;;;;;;13.20;8.23;;;22.00;76.90;;;;;;4995613;28;20440;-69
2023/07/03 07:02:22;;;;;;;13.80;8.70;;;22.00;77.00;;;;;;4994593;28;20026;-69
2023/07/03 07:04:57;;;;;;;15.27;10.25;;;22.00;77.20;;;;;;4995492;28;20026;-68
2023/07/03 07:07:23;;;;;;;15.63;10.15;;;22.00;77.70;;;;;;4996098;28;20030;-68
2023/07/03 07:09:49;;;;;;;16.10;10.63;;;22.00;77.80;;;;;;4995472;28;20026;-69
2023/07/03 07:12:15;;;;;;;14.63;10.38;;;22.00;78.00;;;;;;4995457;28;20105;-69
2023/07/03 07:14:41;;;;;;;15.85;10.20;;;21.90;78.20;;;;;;4995562;28;20039;-67
2023/07/03 07:17:07;;;;;;;14.10;10.23;;;21.90;78.00;;;;;;4995780;28;20500;-69
2023/07/03 07:19:33;;;;;;;15.90;10.70;;;21.90;78.20;;;;;;4995709;28;20080;-68
2023/07/03 07:21:59;;;;;;;17.35;9.60;;;22.00;78.30;;;;;;4995703;28;20101;-67
2023/07/03 07:24:27;;;;;;;14.00;8.93;;;22.00;78.40;;;;;;4995442;28;20034;-68
2023/07/03 07:26:54;;;;;;;14.73;9.27;;;22.00;78.40;;;;;;4995629;28;20041;-68
2023/07/03 07:29:21;;;;;;;13.35;8.77;;;22.10;78.50;;;;;;4995321;28;20074;-68
2023/07/03 07:31:47;;;;;;;13.38;9.63;;;22.20;78.20;;;;;;4995752;28;20061;-69
2023/07/03 07:34:13;;;;;;;13.10;9.30;;;22.10;78.20;;;;;;4995012;28;20051;-68
2023/07/03 07:36:40;;;;;;;14.23;8.90;;;22.30;78.00;;;;;;4998858;28;20097;-68
2023/07/03 07:39:07;;;;;;;13.48;9.10;;;22.40;78.00;;;;;;4998902;28;20041;-68
2023/07/03 07:41:33;;;;;;;12.35;9.10;;;22.40;77.80;;;;;;4998883;28;20030;-69
2023/07/03 07:43:59;;;;;;;15.77;9.45;;;22.40;77.80;;;;;;4998002;28;20037;-67
2023/07/03 07:46:29;;;;;;;15.57;9.90;;;22.50;77.70;;;;;;4997838;28;20037;-68
2023/07/03 07:48:57;;;;;;;13.63;9.15;;;22.60;77.50;;;;;;4998696;28;20448;-68
2023/07/03 07:51:24;;;;;;;13.35;9.02;;;22.80;77.10;;;;;;4998825;28;20423;-68
2023/07/03 07:53:51;;;;;;;14.65;8.43;;;22.90;77.10;;;;;;4998565;28;20022;-67
2023/07/03 07:56:17;;;;;;;11.57;7.82;;;22.90;76.60;;;;;;4998607;28;20022;-67
2023/07/03 07:58:43;;;;;;;11.60;8.05;;;22.90;76.30;;;;;;4998559;28;20038;-68
2023/07/03 08:01:14;;;;;;;12.13;8.00;;;22.90;76.10;;;;;;4998789;28;20037;-68
2023/07/03 08:03:42;;;;;;;12.90;8.82;;;22.90;76.00;;;;;;4997486;28;20050;-69
2023/07/03 08:06:10;;;;;;;13.43;8.55;;;22.90;75.80;;;;;;4998670;28;20030;-69
2023/07/03 08:08:36;;;;;;;11.77;8.05;;;22.80;76.00;;;;;;4998299;28;20034;-69
2023/07/03 08:11:05;;;;;;;13.57;9.10;;;22.80;76.10;;;;;;4998526;28;20030;-68
2023/07/03 08:13:33;;;;;;;11.88;8.43;;;22.80;76.20;;;;;;4998255;28;20023;-69
2023/07/03 08:15:59;;;;;;;14.50;9.50;;;22.80;76.20;;;;;;4998776;28;20018;-68
2023/07/03 08:18:25;;;;;;;12.85;8.80;;;22.80;76.30;;;;;;4998222;28;20019;-67
2023/07/03 08:20:52;;;;;;;12.77;8.52;;;22.90;76.30;;;;;;4997981;28;20022;-68
2023/07/03 08:23:18;;;;;;;14.20;8.52;;;22.90;76.40;;;;;;4997420;28;20033;-69
2023/07/03 08:25:50;;;;;;;11.20;8.30;;;22.90;76.20;;;;;;4998572;28;20022;-67
2023/07/03 08:28:16;;;;;;;11.13;7.97;;;22.90;76.10;;;;;;4997484;28;20050;-69
2023/07/03 08:30:42;;;;;;;11.82;7.40;;;22.80;76.20;;;;;;4997851;28;20022;-69
2023/07/03 08:33:08;;;;;;;10.88;7.00;;;22.80;76.20;;;;;;4997914;28;20061;-68
2023/07/03 08:35:34;;;;;;;10.98;7.28;;;22.70;76.20;;;;;;4998178;28;20050;-69
2023/07/03 08:38:00;;;;;;;11.15;7.45;;;22.60;76.40;;;;;;4996883;28;20081;-69
2023/07/03 08:40:27;;;;;;;13.88;7.20;;;22.50;76.60;;;;;;4998077;28;20026;-68
2023/07/03 08:42:55;;;;;;;10.93;6.63;;;22.50;76.60;;;;;;4998220;28;20033;-68
2023/07/03 08:45:42;;;;;;;11.13;7.10;;;22.40;76.70;;;;;;4997110;28;20018;-69
2023/07/03 08:48:13;;;;;;;13.10;7.60;;;22.30;76.90;;;;;;4997617;28;20034;-68
2023/07/03 08:50:44;;;;;;;11.85;7.25;;;22.30;77.10;;;;;;4998087;28;20110;-69
2023/07/03 08:53:14;;;;;;;11.55;6.97;;;22.20;77.20;;;;;;4997141;28;20081;-69
2023/07/03 08:55:48;;;;;;;12.27;7.15;;;22.10;77.30;;;;;;4997825;28;20110;-68
2023/07/03 08:58:14;;;;;;;10.50;6.78;;;22.10;77.50;;;;;;4997782;28;20026;-69
2023/07/03 09:01:14;;;;;;;11.60;7.07;;;22.10;77.70;;;;;;4997478;28;20471;-68
2023/07/03 09:04:08;;;;;;;10.60;7.05;;;22.00;77.90;;;;;;4995276;28;20038;-68
2023/07/03 09:06:43;;;;;;;10.15;6.55;;;21.90;78.00;;;;;;4996716;28;20049;-67
2023/07/03 09:09:31;;;;;;;10.82;7.47;;;21.90;78.10;;;;;;4997283;28;20061;-67
2023/07/03 09:12:04;;;;;;;13.35;7.60;;;21.90;78.50;;;;;;4997173;28;20102;-68
2023/07/03 09:14:35;;;;;;;10.13;6.97;;;22.00;78.20;;;;;;4997316;28;20134;-67
2023/07/03 09:17:04;;;;;;;10.65;6.97;;;22.00;78.50;;;;;;4997404;28;20031;-68
2023/07/03 09:19:30;;;;;;;11.48;7.43;;;22.00;78.60;;;;;;4997343;28;20022;-68
2023/07/03 09:22:02;;;;;;;12.13;7.50;;;22.10;78.50;;;;;;4997041;28;20058;-68
2023/07/03 09:24:35;;;;;;;12.10;7.30;;;22.10;78.70;;;;;;4996915;28;20030;-68
2023/07/03 09:27:20;;;;;;;10.35;6.88;;;22.20;78.70;;;;;;4996002;28;20026;-69
2023/07/03 09:29:48;;;;;;;11.35;7.50;;;22.20;78.40;;;;;;4997431;28;20038;-69
2023/07/03 09:32:26;;;;;;;11.15;7.50;;;22.30;78.70;;;;;;4996764;28;20026;-68
2023/07/03 09:35:00;;;;;;;11.75;7.75;;;22.30;78.20;;;;;;4996736;28;20046;-69
2023/07/03 09:37:27;;;;;;;12.43;7.32;;;22.40;78.00;;;;;;4996661;28;20033;-68
2023/07/03 09:39:54;;;;;;;11.15;7.50;;;22.40;78.20;;;;;;4996633;28;20041;-69
2023/07/03 09:42:21;;;;;;;11.77;7.70;;;22.50;78.30;;;;;;4996635;28;20026;-68
2023/07/03 09:44:48;;;;;;;11.27;7.43;;;22.60;78.20;;;;;;4995682;28;20026;-68
2023/07/03 09:47:22;;;;;;;11.65;7.28;;;22.70;78.00;;;;;;4995656;28;20101;-67
2023/07/03 09:49:48;;;;;;;9.65;7.22;;;22.80;77.90;;;;;;4997005;28;20038;-67
2023/07/03 09:52:15;;;;;;;9.65;6.72;;;22.90;77.60;;;;;;4996325;28;20124;-68
2023/07/03 09:54:44;;;;;;;9.88;6.45;;;22.90;77.30;;;;;;4996627;28;20034;-68
2023/07/03 09:57:39;;;;;;;9.73;6.72;;;23.00;77.20;;;;;;4996622;28;20069;-68
2023/07/03 10:00:15;;;;;;;10.55;6.93;;;23.00;76.50;;;;;;4955061;29;20469;-68
2023/07/03 10:02:45;;;;;;;10.88;6.55;;;23.00;76.20;;;;;;4956019;29;20054;-67
2023/07/03 10:05:15;;;;;;;9.48;6.43;;;23.00;76.40;;;;;;4953777;29;20044;-67
2023/07/03 10:07:47;;;;;;;9.50;6.22;;;23.00;76.30;;;;;;4938522;29;20039;-69
2023/07/03 10:10:19;;;;;;;10.25;6.15;;;23.00;76.30;;;;;;4939651;29;20031;-68
2023/07/03 10:13:16;;;;;;;9.85;5.88;;;23.00;76.20;;;;;;4954545;29;20023;-69
2023/07/03 10:15:42;;;;;;;9.05;6.15;;;23.00;76.00;;;;;;4954498;29;20062;-67
2023/07/03 10:18:19;;;;;;;9.05;6.20;;;23.10;75.90;;;;;;4955780;29;20035;-68
2023/07/03 10:20:48;;;;;;;9.77;6.10;;;23.20;75.70;;;;;;4941298;29;20127;-67
2023/07/03 10:23:23;;;;;;;8.40;5.43;;;23.30;75.40;;;;;;4955504;29;20046;-68
2023/07/03 10:26:32;;;;;;;10.50;6.13;;;23.30;75.50;;;;;;4956141;29;20038;-69
2023/07/03 10:29:17;;;;;;;10.18;6.38;;;23.30;74.70;;;;;;4955819;29;20067;-69
2023/07/03 10:31:56;;;;;;;9.43;5.85;;;23.40;74.90;;;;;;4955448;29;20031;-67
2023/07/03 10:34:59;;;;;;;10.32;5.95;;;23.40;75.10;;;;;;4955447;29;20437;-68
2023/07/03 10:37:26;;;;;;;10.27;6.55;;;23.40;74.90;;;;;;4966997;28;20506;-67
2023/07/03 10:40:00;;;;;;;10.23;6.75;;;23.50;74.80;;;;;;4995829;28;20018;-68
2023/07/03 10:42:48;;;;;;;10.60;6.18;;;23.60;74.40;;;;;;4995207;28;20093;-69
2023/07/03 10:45:15;;;;;;;9.68;6.47;;;23.70;74.30;;;;;;4996177;28;20027;-68
2023/07/03 10:47:53;;;;;;;13.05;6.63;;;23.90;74.30;;;;;;4995791;28;20027;-69
2023/07/03 10:50:26;;;;;;;9.80;6.20;;;24.10;73.90;;;;;;4994791;28;20522;-67
2023/07/03 10:53:12;;;;;;;10.45;6.18;;;24.30;73.10;;;;;;4996119;28;20060;-67
2023/07/03 10:56:00;;;;;;;10.20;5.82;;;24.40;73.20;;;;;;4995671;28;20042;-68
2023/07/03 10:58:37;;;;;;;10.00;6.28;;;24.60;71.10;;;;;;4995654;28;20031;-68
2023/07/03 11:01:19;;;;;;;9.82;5.63;;;24.70;72.20;;;;;;4978720;28;20387;-67
2023/07/03 11:04:14;;;;;;;10.82;6.28;;;24.90;71.00;;;;;;4994632;28;20539;-69
2023/07/03 11:06:59;;;;;;;7.65;5.38;;;24.90;70.60;;;;;;4995570;28;20026;-67
2023/07/03 11:09:33;;;;;;;9.88;5.88;;;24.90;70.00;;;;;;4996080;28;20026;-67
2023/07/03 11:12:05;;;;;;;9.45;5.63;;;24.90;70.40;;;;;;4999697;28;20026;-67
2023/07/03 11:15:08;;;;;;;9.43;5.95;;;25.00;70.50;;;;;;4999678;28;20026;-68
2023/07/03 11:17:48;;;;;;;10.65;6.38;;;25.10;70.70;;;;;;4999434;28;20061;-69
2023/07/03 11:20:35;;;;;;;9.15;6.05;;;25.10;70.30;;;;;;4999887;28;20030;-69
2023/07/03 11:23:11;;;;;;;8.43;5.82;;;25.20;70.60;;;;;;4999750;28;20025;-68
2023/07/03 11:26:03;;;;;;;11.23;6.60;;;25.20;70.20;;;;;;4999512;28;20360;-69
2023/07/03 11:28:51;;;;;;;9.82;5.90;;;25.30;69.60;;;;;;4994578;28;20077;-68
2023/07/03 11:31:18;;;;;;;9.32;6.15;;;25.40;69.70;;;;;;4999079;28;20034;-68
2023/07/03 11:33:45;;;;;;;9.15;6.30;;;25.60;70.30;;;;;;4998831;28;20112;-67
2023/07/03 11:36:34;;;;;;;9.15;6.05;;;25.90;69.90;;;;;;4998064;28;20359;-67
2023/07/03 11:39:19;;;;;;;10.10;6.10;;;25.90;69.50;;;;;;4999527;28;20026;-68
2023/07/03 11:41:52;;;;;;;8.68;5.60;;;26.10;67.50;;;;;;4999526;28;20034;-67
2023/07/03 11:44:31;;;;;;;9.10;6.07;;;26.10;68.30;;;;;;4998753;28;20041;-67
2023/07/03 11:47:11;;;;;;;8.52;5.78;;;26.10;68.30;;;;;;4999458;28;20030;-68
2023/07/03 11:49:44;;;;;;;9.50;6.22;;;26.20;68.20;;;;;;4999103;28;20029;-69
2023/07/03 11:52:13;;;;;;;10.00;6.43;;;26.30;67.80;;;;;;4999227;28;20037;-68
2023/07/03 11:54:41;;;;;;;8.07;5.70;;;26.30;67.50;;;;;;4998906;28;20026;-68
2023/07/03 11:57:32;;;;;;;9.43;5.78;;;26.30;66.80;;;;;;4998750;28;20027;-67
2023/07/03 12:00:15;;;;;;;8.95;5.97;;;26.30;67.00;;;;;;4999144;28;20018;-67
2023/07/03 12:02:52;;;;;;;9.75;6.05;;;26.40;66.50;;;;;;4998591;28;20359;-68
2023/07/03 12:05:57;;;;;;;9.20;6.00;;;26.40;67.20;;;;;;4997561;28;20038;-69
2023/07/03 12:08:26;;;;;;;8.68;5.85;;;26.50;66.10;;;;;;4958585;29;20526;-68
2023/07/03 12:10:57;;;;;;;9.68;5.78;;;26.60;66.00;;;;;;4957808;29;20039;-68
2023/07/03 12:13:35;;;;;;;8.00;5.43;;;26.60;65.20;;;;;;4957869;29;20071;-68
2023/07/03 12:16:05;;;;;;;8.10;5.40;;;26.70;65.80;;;;;;4957899;29;20035;-68
2023/07/03 12:18:34;;;;;;;7.88;5.00;;;26.60;64.90;;;;;;4958314;29;20063;-68
2023/07/03 12:21:04;;;;;;;8.55;5.40;;;26.70;65.50;;;;;;4957181;28;20031;-67
2023/07/03 12:23:40;;;;;;;8.30;5.28;;;26.80;64.80;;;;;;4957382;29;20082;-68
2023/07/03 12:26:09;;;;;;;9.80;5.63;;;26.90;64.20;;;;;;4957694;29;20075;-68
2023/07/03 12:28:37;;;;;;;8.57;5.28;;;26.90;63.30;;;;;;4957620;29;20029;-69
2023/07/03 12:31:11;;;;;;;7.85;5.32;;;26.90;63.80;;;;;;4957799;29;20031;-68
2023/07/03 12:33:46;;;;;;;9.15;5.45;;;27.00;62.40;;;;;;4957554;29;20159;-69
2023/07/03 12:36:19;;;;;;;7.88;5.47;;;26.90;62.90;;;;;;4957420;29;20041;-68
2023/07/03 12:38:45;;;;;;;6.90;4.97;;;26.80;62.50;;;;;;4972662;28;20038;-68
2023/07/03 12:41:10;;;;;;;9.32;5.43;;;26.90;62.50;;;;;;4997186;28;20426;-68
2023/07/03 12:43:36;;;;;;;9.23;6.03;;;26.90;63.40;;;;;;4997753;28;20018;-68
2023/07/03 12:46:03;;;;;;;7.70;5.35;;;27.10;63.50;;;;;;4997807;28;20113;-68
2023/07/03 12:48:29;;;;;;;7.68;5.22;;;27.20;63.50;;;;;;4997727;28;20034;-68